Time;durP1;ratioP1;P1;durP2;ratioP2;P2;SDS_P1;SDS_P2;PMS_P1;PMS_P2;Temp;Humidity;BMP_temperature;BMP_pressure;BME280_temperature;BME280_humidity;BME280_pressure;Samples;Min_cycle;Max_cycle;Signal;HPM_P1;HPM_P2
2021/06/23 00:00:23;;;;;;;1999.90;999.90;;;15.40;99.90;;;;;;5100336;28;20184;-79
2021/06/23 00:02:49;;;;;;;1999.90;999.90;;;15.40;99.90;;;;;;5101500;28;20418;-80
2021/06/23 00:05:16;;;;;;;1999.90;999.90;;;15.40;99.90;;;;;;5101786;28;20434;-79
2021/06/23 00:07:42;;;;;;;1999.90;999.90;;;15.40;99.90;;;;;;5101236;28;20535;-79
2021/06/23 00:10:08;;;;;;;1999.90;999.90;;;15.40;99.90;;;;;;5102175;28;20464;-79
2021/06/23 00:12:34;;;;;;;1999.90;999.90;;;15.40;99.90;;;;;;5102248;28;20457;-79
2021/06/23 00:15:00;;;;;;;1999.90;999.90;;;15.40;99.90;;;;;;5101773;28;20402;-79
2021/06/23 00:17:28;;;;;;;1999.90;999.90;;;15.40;99.90;;;;;;5101687;28;20165;-80
2021/06/23 00:19:54;;;;;;;1999.90;999.90;;;15.40;99.90;;;;;;5101920;28;20181;-79
2021/06/23 00:22:20;;;;;;;1999.90;999.90;;;15.40;99.90;;;;;;5102049;28;20398;-80
2021/06/23 00:24:45;;;;;;;1999.90;999.90;;;15.40;99.90;;;;;;5102529;28;20627;-80
2021/06/23 00:27:11;;;;;;;1999.90;999.90;;;15.50;99.90;;;;;;5103014;28;20182;-80
2021/06/23 00:29:36;;;;;;;1999.90;999.90;;;15.50;99.90;;;;;;5102324;28;20189;-80
2021/06/23 00:32:03;;;;;;;1999.90;999.90;;;15.50;99.90;;;;;;5102045;28;20533;-79
2021/06/23 00:34:30;;;;;;;1999.90;999.90;;;15.50;99.90;;;;;;5102469;28;20165;-79
2021/06/23 00:36:56;;;;;;;1999.90;999.90;;;15.50;99.90;;;;;;5102436;28;20497;-79
2021/06/23 00:39:23;;;;;;;1999.90;999.90;;;15.50;99.90;;;;;;5102157;28;20490;-79
2021/06/23 00:41:49;;;;;;;1999.90;999.90;;;15.50;99.90;;;;;;5100383;28;20184;-79
2021/06/23 00:44:16;;;;;;;1999.90;999.90;;;15.50;99.90;;;;;;5099830;28;20426;-79
2021/06/23 00:46:42;;;;;;;1999.90;999.90;;;15.50;99.90;;;;;;5099693;28;20415;-80
2021/06/23 00:49:08;;;;;;;1999.90;999.90;;;15.40;99.90;;;;;;5101354;28;20590;-79
2021/06/23 00:51:34;;;;;;;1999.90;999.90;;;15.50;99.90;;;;;;5101175;28;20410;-79
2021/06/23 00:54:00;;;;;;;1999.90;999.90;;;15.50;99.90;;;;;;5101853;28;20433;-79
2021/06/23 00:56:31;;;;;;;1999.90;999.90;;;15.40;99.90;;;;;;5102304;28;20398;-79
2021/06/23 00:58:58;;;;;;;1999.90;999.90;;;15.40;99.90;;;;;;5101762;28;20451;-80
2021/06/23 01:01:24;;;;;;;1999.90;999.90;;;15.40;99.90;;;;;;5102196;28;20405;-80
2021/06/23 01:03:52;;;;;;;1999.90;999.90;;;15.40;99.90;;;;;;5101774;28;20421;-79
2021/06/23 01:06:18;;;;;;;1999.90;999.90;;;15.30;99.90;;;;;;5101538;28;20421;-79
2021/06/23 01:08:44;;;;;;;1999.90;999.90;;;15.40;99.90;;;;;;5102264;28;20457;-79
2021/06/23 01:11:10;;;;;;;1999.90;999.90;;;15.40;99.90;;;;;;5102025;28;20750;-79
2021/06/23 01:14:01;;;;;;;1999.90;999.90;;;15.30;99.90;;;;;;5101676;28;20424;-79
2021/06/23 01:16:29;;;;;;;1999.90;999.90;;;15.30;99.90;;;;;;5093466;28;20415;-79
2021/06/23 01:18:57;;;;;;;1999.90;999.90;;;15.30;99.90;;;;;;5103990;28;20448;-79
2021/06/23 01:21:25;;;;;;;1999.90;999.90;;;15.30;99.90;;;;;;5105087;28;20404;-79
2021/06/23 01:23:51;;;;;;;1999.90;999.90;;;15.30;99.90;;;;;;5105021;28;20414;-79
2021/06/23 01:26:16;;;;;;;1999.90;999.90;;;15.20;99.90;;;;;;5105331;28;20406;-79
2021/06/23 01:28:42;;;;;;;1999.90;999.90;;;15.20;99.90;;;;;;5105230;28;20751;-79
2021/06/23 01:31:08;;;;;;;1999.90;999.90;;;15.30;99.90;;;;;;5104203;28;20164;-79
2021/06/23 01:33:35;;;;;;;1999.90;999.90;;;15.30;99.90;;;;;;5105314;28;20646;-79
2021/06/23 01:36:01;;;;;;;1999.90;999.90;;;15.30;99.90;;;;;;5105072;28;20178;-79
2021/06/23 01:38:27;;;;;;;1999.90;999.90;;;15.30;99.90;;;;;;5104980;28;20484;-79
2021/06/23 01:40:53;;;;;;;1999.90;999.90;;;15.30;99.90;;;;;;5105426;28;20410;-79
2021/06/23 01:43:19;;;;;;;1999.90;999.90;;;15.30;99.90;;;;;;5103565;28;20413;-79
2021/06/23 01:45:45;;;;;;;1999.90;999.90;;;15.30;99.90;;;;;;5104293;28;20409;-79
2021/06/23 01:48:15;;;;;;;1999.90;999.90;;;15.30;99.90;;;;;;5103194;28;20456;-79
2021/06/23 01:50:40;;;;;;;1999.90;999.90;;;15.40;99.90;;;;;;5102623;28;20426;-79
2021/06/23 01:53:06;;;;;;;1999.90;999.90;;;15.30;99.90;;;;;;5103862;28;21023;-79
2021/06/23 01:55:32;;;;;;;1999.90;999.90;;;15.20;99.90;;;;;;5104009;28;20639;-79
2021/06/23 01:58:09;;;;;;;1999.90;999.90;;;15.30;99.90;;;;;;5104404;28;20469;-79
2021/06/23 02:00:45;;;;;;;1999.90;999.90;;;15.30;99.90;;;;;;5104016;28;20540;-80
2021/06/23 02:06:08;;;;;;;1999.90;999.90;;;15.30;99.90;;;;;;5137632;27;20977;-80
2021/06/23 02:08:56;;;;;;;1999.90;999.90;;;15.30;99.90;;;;;;5140027;27;20855;-80
2021/06/23 02:11:54;;;;;;;1999.90;999.90;;;15.20;99.90;;;;;;5140194;27;20384;-80
2021/06/23 02:14:32;;;;;;;1999.90;999.90;;;15.20;99.90;;;;;;5094191;27;20416;-80
2021/06/23 02:17:00;;;;;;;1999.90;999.90;;;15.20;99.90;;;;;;5140101;27;20372;-80
2021/06/23 02:19:26;;;;;;;1999.90;999.90;;;15.20;99.90;;;;;;5121693;27;20900;-80
2021/06/23 02:21:52;;;;;;;1999.90;999.90;;;15.20;99.90;;;;;;5139872;27;20416;-80
2021/06/23 02:24:18;;;;;;;1999.90;999.90;;;15.20;99.90;;;;;;5121738;27;20407;-80
2021/06/23 02:26:45;;;;;;;1999.90;999.90;;;15.20;99.90;;;;;;5139976;27;20400;-80
2021/06/23 02:29:11;;;;;;;1999.90;999.90;;;15.20;99.90;;;;;;5138711;27;20466;-80
2021/06/23 02:31:38;;;;;;;1999.90;999.90;;;15.10;99.90;;;;;;5121736;27;20494;-80
2021/06/23 02:34:08;;;;;;;1999.90;999.90;;;15.20;99.90;;;;;;5139542;27;20209;-80
2021/06/23 02:36:35;;;;;;;1999.90;999.90;;;15.20;99.90;;;;;;5139934;27;20388;-80
2021/06/23 02:39:01;;;;;;;1999.90;999.90;;;15.10;99.90;;;;;;5139183;27;20423;-80
2021/06/23 02:41:26;;;;;;;1999.90;999.90;;;15.20;99.90;;;;;;5139436;27;21023;-80
2021/06/23 02:43:52;;;;;;;1999.90;999.90;;;15.10;99.90;;;;;;5139279;27;20463;-79
2021/06/23 02:46:18;;;;;;;1999.90;999.90;;;15.10;99.90;;;;;;5139731;27;20158;-80
2021/06/23 02:48:44;;;;;;;1999.90;999.90;;;15.10;99.90;;;;;;5138938;27;20998;-80
2021/06/23 02:51:19;;;;;;;1999.90;999.90;;;15.10;99.90;;;;;;5139096;27;20408;-80
2021/06/23 02:53:46;;;;;;;1999.90;999.90;;;15.10;99.90;;;;;;5139188;27;20146;-80
2021/06/23 02:56:12;;;;;;;1999.90;999.90;;;15.10;99.90;;;;;;5190650;22;20821;-80
2021/06/23 02:58:42;;;;;;;1999.90;999.90;;;15.00;99.90;;;;;;5079404;28;20433;-80
2021/06/23 03:01:11;;;;;;;1999.90;999.90;;;15.00;99.90;;;;;;5097856;28;20390;-80
2021/06/23 03:03:38;;;;;;;1999.90;999.90;;;15.10;99.90;;;;;;5097702;28;20447;-80
2021/06/23 03:06:04;;;;;;;1999.90;999.90;;;15.20;99.90;;;;;;5097914;28;20901;-80
2021/06/23 03:08:31;;;;;;;1999.90;999.90;;;15.20;99.90;;;;;;5097662;28;20967;-80
2021/06/23 03:11:00;;;;;;;1999.90;999.90;;;15.10;99.90;;;;;;5080100;28;20416;-80
2021/06/23 03:13:26;;;;;;;1999.90;999.90;;;15.10;99.90;;;;;;5097868;28;20798;-80
2021/06/23 03:15:52;;;;;;;1999.90;999.90;;;15.00;99.90;;;;;;5079535;28;20471;-80
2021/06/23 03:18:18;;;;;;;1999.90;999.90;;;15.00;99.90;;;;;;5097096;28;20462;-79
2021/06/23 03:20:43;;;;;;;1999.90;999.90;;;15.10;99.90;;;;;;5079489;28;20413;-80
2021/06/23 03:23:09;;;;;;;1999.90;999.90;;;15.10;99.90;;;;;;5098019;28;20851;-80
2021/06/23 03:25:35;;;;;;;1999.90;999.90;;;15.10;99.90;;;;;;5097191;28;20163;-80
2021/06/23 03:28:03;;;;;;;1999.90;999.90;;;15.20;99.90;;;;;;5097912;28;20190;-80
2021/06/23 03:30:29;;;;;;;1999.90;999.90;;;15.20;99.90;;;;;;5097110;28;20171;-80
2021/06/23 03:32:55;;;;;;;1999.90;999.90;;;15.10;99.90;;;;;;5079368;28;20920;-80
2021/06/23 03:35:22;;;;;;;1999.90;999.90;;;15.00;99.90;;;;;;5097322;28;20554;-80
2021/06/23 03:37:53;;;;;;;1999.90;999.90;;;14.90;99.90;;;;;;5097487;28;20405;-80
2021/06/23 03:40:20;;;;;;;1999.90;999.90;;;14.90;99.90;;;;;;5078662;28;20434;-80
2021/06/23 03:42:47;;;;;;;1999.90;999.90;;;15.00;99.90;;;;;;5097099;28;20429;-80
2021/06/23 03:45:13;;;;;;;1999.90;999.90;;;15.00;99.90;;;;;;5096839;28;20401;-80
2021/06/23 03:47:40;;;;;;;1999.90;999.90;;;15.00;99.90;;;;;;5078829;28;20437;-79
2021/06/23 03:50:07;;;;;;;1999.90;999.90;;;15.00;99.90;;;;;;5078176;28;20425;-80
2021/06/23 03:52:33;;;;;;;1999.90;999.90;;;15.00;99.90;;;;;;5097367;28;20397;-79
2021/06/23 03:54:59;;;;;;;1999.90;999.90;;;15.00;99.90;;;;;;5096902;28;20771;-80
2021/06/23 03:57:25;;;;;;;1999.90;999.90;;;15.00;99.90;;;;;;5078826;28;20413;-80
2021/06/23 03:59:51;;;;;;;1999.90;999.90;;;15.00;99.90;;;;;;5096638;28;20187;-80
2021/06/23 04:02:17;;;;;;;1999.90;999.90;;;15.00;99.90;;;;;;5096619;28;20614;-80
2021/06/23 04:04:45;;;;;;;1999.90;999.90;;;15.10;99.90;;;;;;5077741;28;20790;-80
2021/06/23 04:07:11;;;;;;;1999.90;999.90;;;15.10;99.90;;;;;;5096810;28;20409;-80
2021/06/23 04:09:42;;;;;;;1999.90;999.90;;;15.00;99.90;;;;;;5075759;28;20454;-80
2021/06/23 04:12:11;;;;;;;1999.90;999.90;;;15.00;99.90;;;;;;5058068;28;20413;-80
2021/06/23 04:14:37;;;;;;;1999.90;999.90;;;15.00;99.90;;;;;;5076045;28;20433;-80
2021/06/23 04:17:03;;;;;;;1999.90;999.90;;;15.00;99.90;;;;;;5075794;28;20402;-80
2021/06/23 04:19:29;;;;;;;1999.90;999.90;;;15.00;99.90;;;;;;5076196;28;20418;-80
2021/06/23 04:21:55;;;;;;;1999.90;999.90;;;15.00;99.90;;;;;;5057957;28;20412;-80
2021/06/23 04:24:21;;;;;;;1999.90;999.90;;;15.00;99.90;;;;;;5076156;28;20489;-80
2021/06/23 04:26:47;;;;;;;1999.90;999.90;;;15.10;99.90;;;;;;5075877;28;20655;-80
2021/06/23 04:29:13;;;;;;;1999.90;999.90;;;15.10;99.90;;;;;;5075585;28;20457;-80
2021/06/23 04:31:39;;;;;;;1999.90;999.90;;;15.20;99.90;;;;;;5076013;28;20521;-80
2021/06/23 04:34:05;;;;;;;1999.90;999.90;;;15.20;99.90;;;;;;5074747;28;20460;-80
2021/06/23 04:36:31;;;;;;;1999.90;999.90;;;15.20;99.90;;;;;;5076504;28;20401;-80
2021/06/23 04:38:56;;;;;;;1999.90;999.90;;;15.30;99.90;;;;;;5076768;28;20436;-80
2021/06/23 04:41:22;;;;;;;1999.90;999.90;;;15.30;99.90;;;;;;5076028;28;20173;-80
2021/06/23 04:43:48;;;;;;;1999.90;999.90;;;15.30;99.90;;;;;;5075714;28;20185;-80
2021/06/23 04:46:13;;;;;;;1999.90;999.90;;;15.30;99.90;;;;;;5076139;28;20169;-80
2021/06/23 04:48:39;;;;;;;1999.90;999.90;;;15.40;99.90;;;;;;5075837;28;20744;-80
2021/06/23 04:51:05;;;;;;;1999.90;999.90;;;15.30;99.90;;;;;;5074183;28;20535;-80
2021/06/23 04:53:31;;;;;;;1999.90;999.90;;;15.20;99.90;;;;;;5079607;28;20195;-80
2021/06/23 04:55:57;;;;;;;1999.90;999.90;;;15.30;99.90;;;;;;5078580;28;20432;-79
2021/06/23 04:58:24;;;;;;;1999.90;999.90;;;15.20;99.90;;;;;;5080081;28;20190;-79
2021/06/23 05:00:50;;;;;;;1999.90;999.90;;;15.20;99.90;;;;;;5061841;28;20787;-80
2021/06/23 05:03:16;;;;;;;1999.90;999.90;;;15.20;99.90;;;;;;5079915;28;20969;-80
2021/06/23 05:05:41;;;;;;;1999.90;999.90;;;15.20;99.90;;;;;;5080176;28;20494;-79
2021/06/23 05:08:07;;;;;;;1999.90;999.90;;;15.30;99.90;;;;;;5079508;28;20188;-80
2021/06/23 05:10:33;;;;;;;1999.90;999.90;;;15.30;99.90;;;;;;5078919;28;20188;-79
2021/06/23 05:12:59;;;;;;;1999.90;999.90;;;15.30;99.90;;;;;;5062539;28;20796;-79
2021/06/23 05:15:25;;;;;;;1999.90;999.90;;;15.40;99.90;;;;;;5078763;28;20404;-78
2021/06/23 05:17:52;;;;;;;1999.90;999.90;;;15.40;99.90;;;;;;5079671;28;20981;-79
2021/06/23 05:20:19;;;;;;;1999.90;999.90;;;15.40;99.90;;;;;;5080115;28;20424;-80
2021/06/23 05:22:49;;;;;;;1999.90;999.90;;;15.40;99.90;;;;;;5080157;28;20510;-79
2021/06/23 05:25:16;;;;;;;1999.90;999.90;;;15.50;99.90;;;;;;5061351;28;20790;-79
2021/06/23 05:27:42;;;;;;;1999.90;999.90;;;15.50;99.90;;;;;;5079454;28;20458;-79
2021/06/23 05:30:08;;;;;;;1999.90;999.90;;;15.50;99.90;;;;;;5078878;28;20415;-80
2021/06/23 05:32:34;;;;;;;1999.90;999.90;;;15.60;99.90;;;;;;5079008;28;20417;-80
2021/06/23 05:34:59;;;;;;;1999.90;999.90;;;15.60;99.90;;;;;;5079431;28;20411;-80
2021/06/23 05:37:25;;;;;;;1999.90;999.90;;;15.70;99.90;;;;;;5077481;28;20172;-80
2021/06/23 05:39:51;;;;;;;1999.90;999.90;;;15.70;99.90;;;;;;5078211;28;20191;-80
2021/06/23 05:42:16;;;;;;;1999.90;999.90;;;15.70;99.90;;;;;;5078952;28;20153;-80
2021/06/23 05:44:42;;;;;;;1999.90;999.90;;;15.80;99.90;;;;;;5078163;28;20173;-79
2021/06/23 05:47:08;;;;;;;1999.90;999.90;;;15.80;99.90;;;;;;5079011;28;20160;-79
2021/06/23 05:49:33;;;;;;;1999.90;999.90;;;15.80;99.90;;;;;;5078444;28;20218;-79
2021/06/23 05:51:59;;;;;;;1999.90;999.90;;;15.80;99.90;;;;;;5078407;28;20158;-80
2021/06/23 05:54:28;;;;;;;1999.90;999.90;;;15.70;99.90;;;;;;5077752;28;20256;-79
2021/06/23 05:56:53;;;;;;;1999.90;999.90;;;15.70;99.90;;;;;;5078222;28;20625;-79
2021/06/23 05:59:19;;;;;;;1999.90;999.90;;;15.80;99.90;;;;;;5077700;28;20416;-80
2021/06/23 06:01:45;;;;;;;1999.90;999.90;;;15.90;99.90;;;;;;5077787;28;20166;-78
2021/06/23 06:04:11;;;;;;;1999.90;999.90;;;15.90;99.90;;;;;;5075075;28;20181;-80
2021/06/23 06:06:36;;;;;;;1999.90;999.90;;;15.90;99.90;;;;;;5078381;28;20903;-80
2021/06/23 06:09:02;;;;;;;1999.90;999.90;;;15.90;99.90;;;;;;5078163;28;20459;-80
2021/06/23 06:11:28;;;;;;;1999.90;999.90;;;16.00;99.90;;;;;;5078766;28;20168;-80
2021/06/23 06:13:54;;;;;;;1999.90;999.90;;;16.00;99.90;;;;;;5078226;28;20400;-80
2021/06/23 06:16:20;;;;;;;1999.90;999.90;;;16.00;99.90;;;;;;5078485;28;20404;-79
2021/06/23 06:18:47;;;;;;;1999.90;999.90;;;16.10;99.90;;;;;;5077972;28;20269;-79
2021/06/23 06:21:13;;;;;;;1999.90;999.90;;;16.20;99.90;;;;;;5077746;28;20397;-79
2021/06/23 06:23:42;;;;;;;1999.90;999.90;;;16.20;99.90;;;;;;5076385;28;20407;-78
2021/06/23 06:26:08;;;;;;;1999.90;999.90;;;16.10;99.90;;;;;;5076024;28;20494;-79
2021/06/23 06:28:35;;;;;;;1999.90;999.90;;;16.10;99.90;;;;;;5076452;28;20530;-79
2021/06/23 06:31:05;;;;;;;1999.90;999.90;;;16.10;99.90;;;;;;5077325;28;20382;-77
2021/06/23 06:33:31;;;;;;;1999.90;999.90;;;16.10;99.90;;;;;;5059591;28;20756;-77
2021/06/23 06:35:56;;;;;;;1999.90;999.90;;;16.10;99.90;;;;;;5078660;28;20457;-79
2021/06/23 06:38:23;;;;;;;1999.90;999.90;;;16.10;99.90;;;;;;5078114;28;20933;-77
2021/06/23 06:40:49;;;;;;;1999.90;999.90;;;16.10;99.90;;;;;;5078523;28;20176;-79
2021/06/23 06:43:15;;;;;;;1999.90;999.90;;;16.10;99.90;;;;;;5076861;28;20420;-77
2021/06/23 06:45:41;;;;;;;1999.90;999.90;;;16.10;99.90;;;;;;5078290;28;20473;-78
2021/06/23 06:48:13;;;;;;;1999.90;999.90;;;16.00;99.90;;;;;;5078385;28;20432;-79
2021/06/23 06:50:41;;;;;;;1999.90;999.90;;;16.00;99.90;;;;;;5077684;28;20420;-79
2021/06/23 06:53:07;;;;;;;1999.90;999.90;;;16.00;99.90;;;;;;5076674;28;20422;-76
2021/06/23 06:55:33;;;;;;;1999.90;999.90;;;15.90;99.90;;;;;;5075794;28;20422;-77
2021/06/23 06:57:59;;;;;;;1999.90;999.90;;;15.80;99.90;;;;;;5077984;28;20169;-79
2021/06/23 07:00:25;;;;;;;1999.90;999.90;;;15.80;99.90;;;;;;5078007;28;20526;-78
2021/06/23 07:02:54;;;;;;;1999.90;999.90;;;15.80;99.90;;;;;;5076999;28;20176;-79
2021/06/23 07:05:20;;;;;;;1999.90;999.90;;;15.80;99.90;;;;;;5059494;28;20416;-77
2021/06/23 07:07:45;;;;;;;1999.90;999.90;;;15.90;99.90;;;;;;5076317;28;20443;-78
2021/06/23 07:10:11;;;;;;;1999.90;999.90;;;15.90;99.90;;;;;;5075551;28;20420;-77
2021/06/23 07:12:37;;;;;;;1999.90;999.90;;;15.90;99.90;;;;;;5075781;28;20181;-77
2021/06/23 07:15:04;;;;;;;1999.90;999.90;;;15.90;99.90;;;;;;5075311;28;20399;-78
2021/06/23 07:17:30;;;;;;;1999.90;999.90;;;16.00;99.90;;;;;;5074342;28;20165;-78
2021/06/23 07:19:58;;;;;;;1999.90;999.90;;;16.10;99.90;;;;;;5057473;28;20427;-78
2021/06/23 07:22:24;;;;;;;1999.90;999.90;;;16.10;99.90;;;;;;5077216;28;20159;-79
2021/06/23 07:24:51;;;;;;;1999.90;999.90;;;16.20;99.90;;;;;;5075892;28;20411;-77
2021/06/23 07:27:17;;;;;;;1999.90;999.90;;;16.30;99.90;;;;;;5057609;28;20184;-77
2021/06/23 07:29:42;;;;;;;1999.90;999.90;;;16.30;99.90;;;;;;5157609;22;20484;-78
2021/06/23 07:32:13;;;;;;;1999.90;999.90;;;16.30;99.90;;;;;;5058041;28;20916;-77
2021/06/23 07:37:11;;;;;;;1999.90;999.90;;;16.30;99.90;;;;;;5075587;28;20385;-77
2021/06/23 07:39:37;;;;;;;1999.90;999.90;;;16.40;99.90;;;;;;5075729;28;20421;-76
2021/06/23 07:42:04;;;;;;;1999.90;999.90;;;16.40;99.90;;;;;;5075263;28;20397;-77
2021/06/23 07:44:34;;;;;;;1999.90;999.90;;;16.50;99.90;;;;;;5057331;28;20451;-78
2021/06/23 07:47:02;;;;;;;1999.90;999.90;;;16.40;99.90;;;;;;5073777;28;20406;-77
2021/06/23 07:49:31;;;;;;;1999.90;999.90;;;16.50;99.90;;;;;;5074882;28;21021;-78
2021/06/23 08:08:13;;;;;;;1999.90;999.90;;;16.50;99.90;;;;;;5075479;28;20528;-77
2021/06/23 08:10:51;;;;;;;1999.90;999.90;;;16.50;99.90;;;;;;5060372;22;20511;-77
2021/06/23 08:13:17;;;;;;;1999.90;999.90;;;16.50;99.90;;;;;;5053133;28;20489;-78
2021/06/23 08:15:46;;;;;;;1999.90;999.90;;;16.50;99.90;;;;;;5053236;28;20812;-77
2021/06/23 08:18:14;;;;;;;1999.90;999.90;;;16.50;99.90;;;;;;5054475;28;20407;-77
2021/06/23 08:20:40;;;;;;;1999.90;999.90;;;16.60;99.90;;;;;;5055452;28;20994;-78
2021/06/23 08:23:06;;;;;;;1999.90;999.90;;;16.70;99.90;;;;;;5054997;28;20401;-77
2021/06/23 08:25:32;;;;;;;1999.90;999.90;;;16.70;99.90;;;;;;5054667;28;20405;-77
2021/06/23 08:27:58;;;;;;;1999.90;999.90;;;16.80;99.90;;;;;;5052680;28;20192;-77
2021/06/23 08:30:24;;;;;;;1999.90;999.90;;;16.80;99.90;;;;;;5054655;28;20517;-77
2021/06/23 08:32:50;;;;;;;1999.90;999.90;;;17.00;99.90;;;;;;5054603;28;20164;-78
2021/06/23 08:35:17;;;;;;;1999.90;999.90;;;17.10;99.90;;;;;;5054524;28;20395;-77
2021/06/23 08:37:49;;;;;;;1999.90;999.90;;;17.00;99.90;;;;;;5054445;28;20399;-76
2021/06/23 08:40:15;;;;;;;1999.90;999.90;;;17.10;99.90;;;;;;5053326;28;20441;-78
2021/06/23 08:42:41;;;;;;;1999.90;999.90;;;17.20;99.90;;;;;;5054109;28;20427;-77
2021/06/23 08:45:12;;;;;;;1999.90;999.90;;;17.20;99.90;;;;;;5054580;28;20414;-77
2021/06/23 08:47:39;;;;;;;1999.90;999.90;;;17.20;99.90;;;;;;5052761;28;20445;-78
2021/06/23 08:50:10;;;;;;;1999.90;999.90;;;17.30;99.90;;;;;;5054095;28;20419;-78
2021/06/23 08:52:39;;;;;;;1999.90;999.90;;;17.30;99.90;;;;;;5052941;28;20391;-78
2021/06/23 08:55:05;;;;;;;1999.90;999.90;;;17.40;99.90;;;;;;5053661;28;20528;-79
2021/06/23 08:57:40;;;;;;;1999.90;999.90;;;17.40;99.90;;;;;;5052878;28;20429;-78
2021/06/23 09:00:08;;;;;;;1999.90;999.90;;;17.50;99.90;;;;;;5053899;28;20426;-77
2021/06/23 09:02:37;;;;;;;1999.90;999.90;;;17.50;99.90;;;;;;5054144;28;20403;-77
2021/06/23 09:05:11;;;;;;;1999.90;999.90;;;17.70;99.90;;;;;;5054993;28;20403;-77
2021/06/23 09:07:49;;;;;;;1999.90;999.90;;;17.70;99.90;;;;;;5053013;28;20438;-78
2021/06/23 09:10:21;;;;;;;1999.90;999.90;;;17.90;99.90;;;;;;5052630;28;21004;-79
2021/06/23 09:15:41;;;;;;;1999.90;999.90;;;18.00;99.90;;;;;;5012236;28;21094;-88
2021/06/23 09:18:20;;;;;;;1999.90;999.90;;;18.20;99.90;;;;;;5013266;28;20385;-88
2021/06/23 09:20:51;;;;;;;1999.90;999.90;;;18.40;99.90;;;;;;4992997;28;20394;-88
2021/06/23 09:23:34;;;;;;;1999.90;999.90;;;18.50;99.90;;;;;;4978118;28;20402;-88
2021/06/23 09:26:23;;;;;;;1999.90;999.90;;;18.60;99.90;;;;;;4977479;28;20917;-88
2021/06/23 09:29:18;;;;;;;1999.90;999.90;;;18.60;99.90;;;;;;4994145;28;21014;-88
2021/06/23 09:32:05;;;;;;;1999.90;999.90;;;18.50;99.90;;;;;;4992372;28;20424;-88
2021/06/23 09:34:39;;;;;;;1999.90;999.90;;;18.40;99.90;;;;;;4994068;28;20896;-88
2021/06/23 09:37:26;;;;;;;1999.90;999.90;;;18.50;99.90;;;;;;4994578;28;20406;-89
2021/06/23 09:40:19;;;;;;;1999.90;999.90;;;18.60;99.90;;;;;;4996376;28;20448;-88
2021/06/23 09:42:56;;;;;;;1999.90;999.90;;;18.70;99.90;;;;;;4997646;28;20401;-88
2021/06/23 09:45:29;;;;;;;1999.90;999.90;;;18.80;99.90;;;;;;4980902;28;20964;-88
2021/06/23 09:48:00;;;;;;;1999.90;999.90;;;18.90;99.90;;;;;;4997914;28;20437;-89
2021/06/23 09:50:32;;;;;;;1999.90;999.90;;;19.00;99.90;;;;;;4997418;28;20457;-89
2021/06/23 09:53:03;;;;;;;1999.90;999.90;;;19.00;99.90;;;;;;4998401;28;20382;-89
2021/06/23 09:55:48;;;;;;;1999.90;999.90;;;19.10;99.90;;;;;;4979825;28;20417;-89
2021/06/23 09:58:26;;;;;;;1999.90;999.90;;;19.30;99.90;;;;;;4996832;28;20413;-89
2021/06/23 10:01:11;;;;;;;1999.90;999.90;;;19.30;99.90;;;;;;4996924;28;20901;-89
2021/06/23 10:03:54;;;;;;;1999.90;999.90;;;19.50;99.90;;;;;;4997066;28;20453;-89
2021/06/23 10:06:25;;;;;;;1999.90;999.90;;;19.60;99.90;;;;;;4996971;28;20501;-89
2021/06/23 10:08:52;;;;;;;1999.90;999.90;;;19.80;99.90;;;;;;4979308;28;20458;-88
2021/06/23 10:11:28;;;;;;;1999.90;999.90;;;19.90;99.90;;;;;;4996977;28;20457;-88
2021/06/23 10:13:54;;;;;;;1999.90;999.90;;;19.80;99.90;;;;;;4996764;28;20428;-88
2021/06/23 10:16:23;;;;;;;1999.90;999.90;;;19.80;99.90;;;;;;4996688;28;20402;-88
2021/06/23 10:18:57;;;;;;;1999.90;999.90;;;19.80;99.90;;;;;;4996394;28;20187;-88
2021/06/23 10:21:28;;;;;;;1999.90;999.90;;;19.80;99.90;;;;;;4996862;28;20731;-88
2021/06/23 10:23:58;;;;;;;1999.90;999.90;;;19.80;99.90;;;;;;4996525;28;20392;-88
2021/06/23 10:26:26;;;;;;;1999.90;999.90;;;19.90;99.90;;;;;;4996663;28;20445;-89
2021/06/23 10:28:54;;;;;;;1999.90;999.90;;;19.70;99.90;;;;;;4978514;28;20862;-89
2021/06/23 10:31:23;;;;;;;1999.90;999.90;;;19.50;99.90;;;;;;4996657;28;20406;-88
2021/06/23 10:33:53;;;;;;;1999.90;999.90;;;19.40;99.90;;;;;;4978654;28;20418;-87
2021/06/23 10:36:19;;;;;;;1999.90;999.90;;;19.30;99.90;;;;;;4979034;28;20461;-88
2021/06/23 10:38:48;;;;;;;1999.90;999.90;;;19.20;99.90;;;;;;4978524;28;20528;-88
2021/06/23 10:41:15;;;;;;;1999.90;999.90;;;19.30;99.90;;;;;;4978475;28;20795;-88
2021/06/23 10:43:43;;;;;;;1999.90;999.90;;;19.10;99.90;;;;;;4978403;28;20416;-87
2021/06/23 10:46:09;;;;;;;1999.90;999.90;;;19.00;99.90;;;;;;4996233;28;20746;-87
2021/06/23 10:48:55;;;;;;;1999.90;999.90;;;19.10;99.90;;;;;;4994454;28;20815;-89
2021/06/23 10:51:25;;;;;;;1999.90;999.90;;;19.30;99.90;;;;;;4995923;28;20387;-89
2021/06/23 10:53:51;;;;;;;1999.90;999.90;;;19.40;99.90;;;;;;4979013;28;20488;-89
2021/06/23 10:56:47;;;;;;;1999.90;999.90;;;19.40;99.90;;;;;;4995908;28;20450;-88
2021/06/23 10:59:37;;;;;;;1999.90;999.90;;;19.40;99.90;;;;;;4995958;28;20321;-89
2021/06/23 11:02:17;;;;;;;1999.90;999.90;;;19.30;99.90;;;;;;4996016;28;20389;-89
2021/06/23 11:05:02;;;;;;;1999.90;999.90;;;19.40;99.90;;;;;;4995897;28;20881;-89
2021/06/23 11:07:34;;;;;;;1999.90;999.90;;;19.40;99.90;;;;;;4994518;28;20456;-89
2021/06/23 11:10:26;;;;;;;1999.90;999.90;;;19.30;99.90;;;;;;4994536;28;20422;-89
2021/06/23 11:12:58;;;;;;;1999.90;999.90;;;19.20;99.90;;;;;;4995638;28;20449;-89
2021/06/23 11:15:33;;;;;;;1999.90;999.90;;;19.10;99.90;;;;;;4995612;28;20383;-89
2021/06/23 11:18:19;;;;;;;1999.90;999.90;;;19.30;99.90;;;;;;4994864;28;20417;-89
2021/06/23 11:20:49;;;;;;;1999.90;999.90;;;19.00;99.90;;;;;;4977961;28;20469;-89
2021/06/23 11:23:42;;;;;;;1999.90;999.90;;;19.00;99.90;;;;;;4995293;28;20773;-89
2021/06/23 11:26:29;;;;;;;1999.90;999.90;;;18.90;99.90;;;;;;4994121;28;20857;-89
2021/06/23 11:29:20;;;;;;;1999.90;999.90;;;18.70;99.90;;;;;;4977411;28;20453;-89
2021/06/23 11:31:50;;;;;;;1999.90;999.90;;;18.70;99.90;;;;;;4977654;28;20410;-89
2021/06/23 11:34:43;;;;;;;1999.90;999.90;;;18.70;99.90;;;;;;4978944;28;20769;-89
2021/06/23 11:37:19;;;;;;;1999.90;999.90;;;19.00;99.90;;;;;;4995861;28;20382;-89
2021/06/23 11:40:15;;;;;;;1999.90;999.90;;;19.30;99.90;;;;;;4977854;28;20520;-89
2021/06/23 11:42:40;;;;;;;1999.90;999.90;;;19.50;99.90;;;;;;4995271;28;20383;-89
2021/06/23 11:45:10;;;;;;;1999.90;999.90;;;19.80;99.90;;;;;;4977486;28;20413;-88
2021/06/23 11:47:38;;;;;;;1999.90;999.90;;;20.00;99.90;;;;;;4995414;28;20182;-89
2021/06/23 11:50:04;;;;;;;1999.90;999.90;;;20.20;99.90;;;;;;4995216;28;20455;-89
2021/06/23 11:52:30;;;;;;;1999.90;999.90;;;20.40;99.90;;;;;;4995061;28;20414;-89
2021/06/23 11:54:59;;;;;;;1999.90;999.90;;;20.30;99.90;;;;;;4977773;28;20410;-90
2021/06/23 11:57:24;;;;;;;1999.90;999.90;;;20.40;99.90;;;;;;4977999;28;20265;-89
2021/06/23 11:59:51;;;;;;;1999.90;999.90;;;20.50;99.90;;;;;;4994691;28;20448;-89
2021/06/23 12:02:17;;;;;;;1999.90;999.90;;;20.60;99.90;;;;;;4993761;28;20287;-88
2021/06/23 12:04:42;;;;;;;1999.90;999.90;;;20.80;99.90;;;;;;4994977;28;20929;-88
2021/06/23 12:07:08;;;;;;;1999.90;999.90;;;21.10;99.90;;;;;;4994645;28;20556;-89
2021/06/23 12:09:34;;;;;;;1999.90;999.90;;;21.20;99.90;;;;;;4977449;28;20202;-89
2021/06/23 12:12:00;;;;;;;1999.90;999.90;;;21.20;99.90;;;;;;4994287;28;20177;-89
2021/06/23 12:14:25;;;;;;;1999.90;999.90;;;21.20;99.90;;;;;;4994510;28;20192;-89
2021/06/23 12:16:51;;;;;;;1999.90;999.90;;;21.40;99.90;;;;;;4977501;28;20172;-88
2021/06/23 12:19:19;;;;;;;1999.90;999.90;;;21.40;99.90;;;;;;4994631;28;20205;-88
2021/06/23 12:21:45;;;;;;;1999.90;999.90;;;21.60;99.90;;;;;;4994873;28;20170;-88
2021/06/23 12:24:11;;;;;;;1999.90;999.90;;;21.70;99.90;;;;;;4994583;28;20772;-88
2021/06/23 12:26:36;;;;;;;1999.90;999.90;;;21.80;99.90;;;;;;4994047;28;20177;-89
2021/06/23 12:29:03;;;;;;;1999.90;999.90;;;21.80;99.90;;;;;;4994121;28;20210;-88
2021/06/23 12:31:29;;;;;;;1999.90;999.90;;;21.60;99.90;;;;;;4976492;28;20181;-88